Time;durP1;ratioP1;P1;durP2;ratioP2;P2;SDS_P1;SDS_P2;PMS_P1;PMS_P2;Temp;Humidity;BMP_temperature;BMP_pressure;BME280_temperature;BME280_humidity;BME280_pressure;Samples;Min_cycle;Max_cycle;Signal;HPM_P1;HPM_P2
2023/11/20 00:02:21;;;;;;;7.70;2.10;;;;;;;;;;103760;1292;544774;-70
2023/11/20 00:05:59;;;;;;;9.60;2.40;;;;;;;;;;103736;1290;545082;-72
2023/11/20 00:09:36;;;;;;;10.90;2.90;;;;;;;;;;103808;1294;544932;-72
2023/11/20 00:13:10;;;;;;;9.80;2.70;;;;;;;;;;104080;1292;545570;-69
2023/11/20 00:16:52;;;;;;;8.00;2.00;;;;;;;;;;105518;1289;545432;-72
2023/11/20 00:20:31;;;;;;;9.70;2.00;;;;;;;;;;104011;1288;544995;-72
2023/11/20 00:24:07;;;;;;;8.50;2.50;;;;;;;;;;103909;1290;545645;-72
2023/11/20 00:27:44;;;;;;;10.20;2.60;;;;;;;;;;103765;1289;544804;-71
2023/11/20 00:31:23;;;;;;;9.70;2.20;;;;;;;;;;103612;1290;545785;-71
2023/11/20 00:34:58;;;;;;;9.30;2.30;;;;;;;;;;104242;1285;545103;-72
2023/11/20 00:38:36;;;;;;;10.10;2.70;;;;;;;;;;103678;1289;544927;-72
2023/11/20 00:42:13;;;;;;;8.30;2.40;;;;;;;;;;103913;1289;545546;-71
2023/11/20 00:45:51;;;;;;;8.20;2.40;;;;;;;;;;103773;1288;544803;-72
2023/11/20 00:49:28;;;;;;;9.20;2.30;;;;;;;;;;104554;1282;544814;-71
2023/11/20 00:53:06;;;;;;;8.10;2.30;;;;;;;;;;103882;1288;545004;-72
2023/11/20 00:56:39;;;;;;;7.40;2.10;;;;;;;;;;103902;1291;544766;-71
2023/11/20 01:00:21;;;;;;;8.90;2.60;;;;;;;;;;103721;1291;544746;-72
2023/11/20 01:03:58;;;;;;;8.60;2.70;;;;;;;;;;103811;1289;544753;-72
2023/11/20 01:07:36;;;;;;;10.70;2.30;;;;;;;;;;103682;1303;544956;-72
2023/11/20 01:11:13;;;;;;;9.20;2.20;;;;;;;;;;103638;1291;545511;-71
2023/11/20 01:14:50;;;;;;;9.00;2.20;;;;;;;;;;103778;1289;545595;-71
2023/11/20 01:18:28;;;;;;;8.40;2.10;;;;;;;;;;103792;1292;546048;-70
2023/11/20 01:22:05;;;;;;;10.00;2.80;;;;;;;;;;103756;1291;545390;-69
2023/11/20 01:25:43;;;;;;;9.60;2.90;;;;;;;;;;103790;1288;544921;-69
2023/11/20 01:29:21;;;;;;;7.30;2.30;;;;;;;;;;103722;1291;545737;-70
2023/11/20 01:32:58;;;;;;;10.00;2.60;;;;;;;;;;103793;1298;544786;-70
2023/11/20 01:36:35;;;;;;;8.00;2.40;;;;;;;;;;103650;1291;545442;-70
2023/11/20 01:40:13;;;;;;;9.70;2.80;;;;;;;;;;103804;1292;544705;-71
2023/11/20 01:43:50;;;;;;;8.50;2.30;;;;;;;;;;103792;1289;545023;-70
2023/11/20 01:47:28;;;;;;;8.90;2.40;;;;;;;;;;103902;1289;545300;-72
2023/11/20 01:51:05;;;;;;;8.00;1.90;;;;;;;;;;103729;1289;545506;-72
2023/11/20 01:54:39;;;;;;;7.40;2.10;;;;;;;;;;104517;1282;544595;-71
2023/11/20 01:58:20;;;;;;;7.30;2.50;;;;;;;;;;103744;1291;545657;-71
2023/11/20 02:01:59;;;;;;;7.10;2.30;;;;;;;;;;103799;1290;544857;-71
2023/11/20 02:05:34;;;;;;;6.60;1.80;;;;;;;;;;103703;1294;544962;-71
2023/11/20 02:09:13;;;;;;;6.90;1.70;;;;;;;;;;103525;1298;545636;-72
2023/11/20 02:12:50;;;;;;;6.60;1.70;;;;;;;;;;103745;1293;545723;-73
2023/11/20 02:16:27;;;;;;;5.40;1.40;;;;;;;;;;103940;1289;545350;-72
2023/11/20 02:20:08;;;;;;;6.60;1.50;;;;;;;;;;103848;1289;544871;-72
2023/11/20 02:23:42;;;;;;;4.90;1.60;;;;;;;;;;103788;1292;544833;-71
2023/11/20 02:27:29;;;;;;;7.40;1.70;;;;;;;;;;103707;1288;545911;-70
2023/11/20 02:30:58;;;;;;;6.50;1.80;;;;;;;;;;103767;1301;545393;-71
2023/11/20 02:34:37;;;;;;;5.10;1.40;;;;;;;;;;103721;1289;545990;-70
2023/11/20 02:38:12;;;;;;;5.60;1.50;;;;;;;;;;103987;1286;546100;-72
2023/11/20 02:41:50;;;;;;;6.70;1.60;;;;;;;;;;104032;1286;545633;-70
2023/11/20 02:45:27;;;;;;;5.80;1.40;;;;;;;;;;104081;1289;545700;-71
2023/11/20 02:49:04;;;;;;;6.40;1.90;;;;;;;;;;103748;1289;544916;-70
2023/11/20 02:52:39;;;;;;;6.10;1.70;;;;;;;;;;103727;1289;545449;-71
2023/11/20 02:56:19;;;;;;;6.00;1.40;;;;;;;;;;103707;1295;544926;-71
2023/11/20 02:59:57;;;;;;;5.20;1.60;;;;;;;;;;103807;1290;545190;-71
2023/11/20 03:03:39;;;;;;;7.00;2.10;;;;;;;;;;103863;1290;546699;-72
2023/11/20 03:07:13;;;;;;;8.60;2.10;;;;;;;;;;103759;1291;544973;-72
2023/11/20 03:10:49;;;;;;;6.10;2.30;;;;;;;;;;103713;1291;544861;-71
2023/11/20 03:14:27;;;;;;;7.40;2.60;;;;;;;;;;103675;1291;544806;-72
2023/11/20 03:18:04;;;;;;;6.90;2.50;;;;;;;;;;104398;1282;545385;-72
2023/11/20 03:21:43;;;;;;;7.40;2.70;;;;;;;;;;103793;1292;545405;-71
2023/11/20 03:25:19;;;;;;;6.80;3.60;;;;;;;;;;103976;1286;545512;-72
2023/11/20 03:28:57;;;;;;;8.90;4.30;;;;;;;;;;103892;1288;545036;-70
2023/11/20 03:32:36;;;;;;;7.60;3.60;;;;;;;;;;103532;1298;545738;-73
2023/11/20 03:36:13;;;;;;;7.60;3.30;;;;;;;;;;103693;1291;544967;-72
2023/11/20 03:39:49;;;;;;;6.70;2.60;;;;;;;;;;103793;1291;545233;-70
2023/11/20 03:43:28;;;;;;;5.40;2.20;;;;;;;;;;103833;1290;545412;-71
2023/11/20 03:47:04;;;;;;;6.20;2.10;;;;;;;;;;103754;1289;545016;-71
2023/11/20 03:50:38;;;;;;;6.90;2.40;;;;;;;;;;103818;1292;544726;-70
2023/11/20 03:54:19;;;;;;;7.10;2.30;;;;;;;;;;104252;1288;545031;-70
2023/11/20 03:57:52;;;;;;;5.20;2.00;;;;;;;;;;103770;1289;544702;-71
2023/11/20 04:01:34;;;;;;;6.30;2.40;;;;;;;;;;103634;1291;545972;-70
2023/11/20 04:05:11;;;;;;;6.10;2.50;;;;;;;;;;103679;1292;544811;-72
2023/11/20 04:08:49;;;;;;;6.90;2.40;;;;;;;;;;103765;1291;544835;-72
2023/11/20 04:12:27;;;;;;;6.50;2.70;;;;;;;;;;103742;1291;544864;-70
2023/11/20 04:16:04;;;;;;;7.40;3.40;;;;;;;;;;103807;1291;545339;-72
2023/11/20 04:19:41;;;;;;;8.40;3.90;;;;;;;;;;103556;1291;545128;-71
2023/11/20 04:23:18;;;;;;;8.30;4.10;;;;;;;;;;103587;1292;545541;-72
2023/11/20 04:26:56;;;;;;;7.60;3.30;;;;;;;;;;103740;1289;544884;-71
2023/11/20 04:30:34;;;;;;;7.70;3.70;;;;;;;;;;103746;1291;544999;-72
2023/11/20 04:34:13;;;;;;;12.60;7.40;;;;;;;;;;104541;1289;545349;-72
2023/11/20 04:37:49;;;;;;;12.70;7.20;;;;;;;;;;104100;1284;544874;-71
2023/11/20 04:41:26;;;;;;;6.90;3.00;;;;;;;;;;103676;1295;546482;-73
2023/11/20 04:45:04;;;;;;;5.90;1.70;;;;;;;;;;103648;1291;545230;-72
2023/11/20 04:48:37;;;;;;;3.70;1.40;;;;;;;;;;103997;1287;545615;-72
2023/11/20 04:52:18;;;;;;;4.80;1.70;;;;;;;;;;103821;1295;545431;-71
2023/11/20 04:55:56;;;;;;;4.50;1.60;;;;;;;;;;103713;1301;545533;-71
2023/11/20 04:59:30;;;;;;;5.20;1.70;;;;;;;;;;103817;1288;545506;-72
2023/11/20 05:03:11;;;;;;;4.70;1.60;;;;;;;;;;103759;1292;544737;-70
2023/11/20 05:06:49;;;;;;;6.70;2.00;;;;;;;;;;103646;1298;544947;-71
2023/11/20 05:10:22;;;;;;;4.80;1.40;;;;;;;;;;103524;1295;544943;-70
2023/11/20 05:14:03;;;;;;;5.30;1.80;;;;;;;;;;103715;1291;544884;-70
2023/11/20 05:17:43;;;;;;;5.60;1.80;;;;;;;;;;103611;1291;544921;-73
2023/11/20 05:21:18;;;;;;;5.60;2.30;;;;;;;;;;103661;1291;545105;-72
2023/11/20 05:24:55;;;;;;;4.50;1.80;;;;;;;;;;103729;1294;545175;-70
2023/11/20 05:28:33;;;;;;;6.20;2.40;;;;;;;;;;103805;1289;544972;-70
2023/11/20 05:32:10;;;;;;;6.30;2.60;;;;;;;;;;103562;1291;545385;-71
2023/11/20 05:35:48;;;;;;;8.20;3.80;;;;;;;;;;103682;1293;544799;-71
2023/11/20 05:39:27;;;;;;;9.70;5.10;;;;;;;;;;103480;1291;545246;-70
2023/11/20 05:43:03;;;;;;;9.70;3.80;;;;;;;;;;103542;1289;544798;-69
2023/11/20 05:46:36;;;;;;;10.80;6.30;;;;;;;;;;103751;1292;545109;-69
2023/11/20 05:50:18;;;;;;;9.50;3.80;;;;;;;;;;103659;1291;545046;-70
2023/11/20 05:53:56;;;;;;;8.10;3.00;;;;;;;;;;103566;1294;544836;-70
2023/11/20 05:57:32;;;;;;;10.30;4.80;;;;;;;;;;103667;1289;544747;-70
2023/11/20 06:01:12;;;;;;;9.50;4.50;;;;;;;;;;103788;1289;544867;-69
2023/11/20 06:04:47;;;;;;;9.90;4.30;;;;;;;;;;103846;1289;544817;-70
2023/11/20 06:08:24;;;;;;;7.80;3.20;;;;;;;;;;103643;1292;544872;-70
2023/11/20 06:12:03;;;;;;;7.70;2.90;;;;;;;;;;103345;1295;545108;-69
2023/11/20 06:15:40;;;;;;;7.10;2.50;;;;;;;;;;103580;1291;544619;-71
2023/11/20 06:19:18;;;;;;;8.70;2.40;;;;;;;;;;104010;1288;544939;-71
2023/11/20 06:22:55;;;;;;;9.50;3.20;;;;;;;;;;103951;1292;544884;-70
2023/11/20 06:26:52;;;;;;;9.80;4.30;;;;;;;;;;103511;1292;547952;-68
2023/11/20 06:30:10;;;;;;;10.80;4.50;;;;;;;;;;104022;1288;544754;-69
2023/11/20 06:34:37;;;;;;;;;;;;;;;;;;;;;
2023/11/20 06:37:25;;;;;;;14.10;4.70;;;;;;;;;;103555;1292;545474;-69
2023/11/20 06:41:03;;;;;;;13.40;4.20;;;;;;;;;;103648;1290;544783;-70
2023/11/20 06:44:39;;;;;;;11.50;3.60;;;;;;;;;;103730;1289;544960;-69
2023/11/20 06:48:17;;;;;;;13.00;5.00;;;;;;;;;;104074;1291;545697;-69
2023/11/20 06:51:55;;;;;;;15.00;7.30;;;;;;;;;;103661;1289;545356;-70
2023/11/20 06:55:34;;;;;;;9.50;4.90;;;;;;;;;;103767;1288;545290;-69
2023/11/20 06:59:09;;;;;;;11.10;5.30;;;;;;;;;;103718;1292;544932;-69
2023/11/20 07:02:47;;;;;;;11.40;4.80;;;;;;;;;;104080;1284;545599;-70
2023/11/20 07:06:26;;;;;;;11.00;4.60;;;;;;;;;;103688;1291;544852;-70
2023/11/20 07:10:10;;;;;;;28.20;13.10;;;;;;;;;;103737;1289;545430;-69
2023/11/20 07:13:39;;;;;;;35.00;16.50;;;;;;;;;;103622;1291;544845;-69
2023/11/20 07:17:17;;;;;;;31.90;12.00;;;;;;;;;;103772;1289;544980;-68
2023/11/20 07:20:55;;;;;;;12.90;5.90;;;;;;;;;;103631;1295;545444;-69
2023/11/20 07:24:32;;;;;;;15.00;6.00;;;;;;;;;;103771;1289;545037;-69
2023/11/20 07:28:09;;;;;;;14.00;6.50;;;;;;;;;;103735;1289;545446;-69
2023/11/20 07:31:47;;;;;;;12.90;5.80;;;;;;;;;;103538;1289;544977;-69
2023/11/20 07:35:24;;;;;;;11.40;7.80;;;;;;;;;;103951;1292;545203;-69
2023/11/20 07:39:02;;;;;;;9.00;4.20;;;;;;;;;;103823;1292;544858;-69
2023/11/20 07:42:35;;;;;;;9.60;4.10;;;;;;;;;;103819;1288;544895;-70
2023/11/20 07:46:17;;;;;;;8.80;4.40;;;;;;;;;;103735;1290;545312;-69
2023/11/20 07:49:54;;;;;;;10.20;3.80;;;;;;;;;;103790;1292;545093;-69
2023/11/20 07:53:28;;;;;;;10.20;3.90;;;;;;;;;;103746;1289;546696;-69
2023/11/20 07:57:46;;;;;;;14.10;5.90;;;;;;;;;;103682;1291;545485;-69
2023/11/20 08:00:51;;;;;;;13.60;5.60;;;;;;;;;;103417;1293;544860;-70
2023/11/20 08:04:28;;;;;;;11.80;5.90;;;;;;;;;;103706;1290;544928;-71
2023/11/20 08:08:01;;;;;;;14.20;6.90;;;;;;;;;;103710;1289;545051;-70
2023/11/20 08:11:44;;;;;;;17.60;10.20;;;;;;;;;;103701;1292;544976;-68
2023/11/20 08:15:20;;;;;;;24.90;14.80;;;;;;;;;;103932;1289;545465;-70
2023/11/20 08:18:58;;;;;;;55.00;34.80;;;;;;;;;;104286;1282;545842;-70
2023/11/20 08:22:39;;;;;;;26.60;14.20;;;;;;;;;;103453;1298;545166;-69
2023/11/20 08:26:13;;;;;;;10.90;4.10;;;;;;;;;;103700;1290;545074;-72
2023/11/20 08:29:50;;;;;;;7.80;3.10;;;;;;;;;;103730;1289;545140;-69
2023/11/20 08:33:27;;;;;;;7.30;2.10;;;;;;;;;;103763;1289;545406;-69
2023/11/20 08:37:06;;;;;;;6.50;1.80;;;;;;;;;;103718;1291;545522;-69
2023/11/20 08:40:43;;;;;;;6.50;1.60;;;;;;;;;;104555;1288;545398;-70
2023/11/20 08:44:20;;;;;;;9.40;4.20;;;;;;;;;;103868;1289;545828;-70
2023/11/20 08:47:55;;;;;;;13.90;6.70;;;;;;;;;;104490;1283;545485;-70
2023/11/20 08:51:35;;;;;;;15.40;8.60;;;;;;;;;;103817;1294;544800;-70
2023/11/20 08:55:12;;;;;;;12.30;6.40;;;;;;;;;;103851;1296;545985;-70
2023/11/20 08:58:50;;;;;;;11.10;5.20;;;;;;;;;;103612;1291;546278;-69
2023/11/20 09:02:27;;;;;;;7.90;3.40;;;;;;;;;;103594;1302;544924;-68
2023/11/20 09:06:05;;;;;;;8.50;3.80;;;;;;;;;;103634;1289;544917;-68
2023/11/20 09:09:43;;;;;;;8.60;3.50;;;;;;;;;;103732;1294;544916;-69
2023/11/20 09:13:19;;;;;;;7.40;3.60;;;;;;;;;;104397;1291;545521;-69
2023/11/20 09:16:57;;;;;;;8.90;4.50;;;;;;;;;;103513;1290;545841;-68
2023/11/20 09:20:35;;;;;;;8.70;4.00;;;;;;;;;;103614;1291;545533;-69
2023/11/20 09:24:12;;;;;;;9.30;3.70;;;;;;;;;;103627;1292;544842;-70
2023/11/20 09:27:50;;;;;;;7.90;3.80;;;;;;;;;;103573;1292;544882;-71
2023/11/20 09:31:28;;;;;;;8.60;3.80;;;;;;;;;;103895;1290;544983;-69
2023/11/20 09:35:05;;;;;;;8.30;4.00;;;;;;;;;;103676;1288;544729;-69
2023/11/20 09:38:43;;;;;;;13.10;6.90;;;;;;;;;;103759;1290;544997;-69
2023/11/20 09:42:21;;;;;;;18.60;10.10;;;;;;;;;;103725;1296;544941;-69
2023/11/20 09:46:06;;;;;;;16.00;10.10;;;;;;;;;;104452;1286;544869;-69
2023/11/20 09:49:35;;;;;;;12.60;8.40;;;;;;;;;;103697;1289;545021;-71
2023/11/20 09:53:12;;;;;;;9.70;5.30;;;;;;;;;;103572;1301;544983;-70
2023/11/20 09:56:50;;;;;;;10.90;6.00;;;;;;;;;;103777;1290;544919;-69
2023/11/20 10:00:27;;;;;;;10.70;6.70;;;;;;;;;;103496;1291;545560;-70
2023/11/20 10:04:01;;;;;;;10.30;7.00;;;;;;;;;;103672;1292;545007;-70
2023/11/20 10:07:43;;;;;;;9.40;5.80;;;;;;;;;;103654;1289;544827;-70
2023/11/20 10:11:21;;;;;;;10.30;4.10;;;;;;;;;;103520;1291;545019;-70
2023/11/20 10:14:53;;;;;;;12.20;6.70;;;;;;;;;;104500;1286;544810;-70
2023/11/20 10:18:35;;;;;;;14.70;8.50;;;;;;;;;;104009;1291;544994;-67
2023/11/20 10:22:14;;;;;;;10.00;5.80;;;;;;;;;;103924;1289;545926;-69
2023/11/20 10:25:50;;;;;;;9.60;4.10;;;;;;;;;;104071;1289;545482;-69
2023/11/20 10:29:27;;;;;;;8.20;3.70;;;;;;;;;;104001;1289;545007;-70
2023/11/20 10:33:04;;;;;;;11.50;6.10;;;;;;;;;;103789;1289;544846;-70
2023/11/20 10:36:41;;;;;;;9.80;5.70;;;;;;;;;;103572;1291;545557;-71
2023/11/20 10:40:17;;;;;;;8.70;4.70;;;;;;;;;;103740;1295;545578;-70
2023/11/20 10:43:57;;;;;;;8.50;3.50;;;;;;;;;;103691;1288;544941;-70
2023/11/20 10:47:34;;;;;;;5.20;2.20;;;;;;;;;;103597;1292;545001;-70
2023/11/20 10:51:12;;;;;;;3.50;1.10;;;;;;;;;;103781;1288;544784;-69
2023/11/20 10:54:49;;;;;;;5.20;1.60;;;;;;;;;;103654;1288;545160;-70
2023/11/20 10:58:26;;;;;;;2.30;0.80;;;;;;;;;;103779;1289;544788;-68
2023/11/20 11:02:08;;;;;;;2.70;0.90;;;;;;;;;;103567;1288;544978;-70
2023/11/20 11:05:43;;;;;;;2.80;0.70;;;;;;;;;;103611;1297;544803;-70
2023/11/20 11:09:20;;;;;;;2.20;0.80;;;;;;;;;;104485;1283;544794;-70
2023/11/20 11:12:58;;;;;;;3.20;0.80;;;;;;;;;;104167;1283;545852;-70
2023/11/20 11:16:47;;;;;;;2.00;0.70;;;;;;;;;;103658;1297;545903;-71
2023/11/20 11:20:18;;;;;;;2.20;0.80;;;;;;;;;;103715;1289;545225;-71
2023/11/20 11:23:51;;;;;;;2.50;0.70;;;;;;;;;;103714;1292;545017;-71
2023/11/20 11:27:37;;;;;;;1.90;0.70;;;;;;;;;;103923;1292;544771;-73
2023/11/20 11:31:04;;;;;;;2.40;0.80;;;;;;;;;;103885;1288;544978;-71
2023/11/20 11:34:50;;;;;;;3.00;0.90;;;;;;;;;;103571;1291;545472;-71
2023/11/20 11:38:33;;;;;;;2.30;0.70;;;;;;;;;;104264;1289;544742;-71
2023/11/20 11:41:59;;;;;;;3.20;0.90;;;;;;;;;;103858;1289;545529;-71
2023/11/20 11:45:33;;;;;;;2.60;1.00;;;;;;;;;;103575;1289;545915;-69
2023/11/20 11:49:29;;;;;;;2.20;0.80;;;;;;;;;;103727;1289;544766;-70
2023/11/20 11:52:48;;;;;;;3.50;0.80;;;;;;;;;;104040;1289;546064;-70
2023/11/20 11:56:26;;;;;;;2.50;0.80;;;;;;;;;;103756;1290;544745;-71
2023/11/20 11:59:59;;;;;;;1.90;0.60;;;;;;;;;;103782;1289;545088;-72
2023/11/20 12:03:41;;;;;;;2.20;0.70;;;;;;;;;;103587;1289;545030;-75
2023/11/20 12:07:45;;;;;;;1.70;0.70;;;;;;;;;;103582;1291;547973;-72
2023/11/20 12:10:55;;;;;;;3.20;0.80;;;;;;;;;;103720;1289;545020;-70
2023/11/20 12:14:33;;;;;;;2.60;0.70;;;;;;;;;;103797;1291;545781;-71
2023/11/20 12:18:10;;;;;;;3.20;1.10;;;;;;;;;;103755;1289;544772;-72
2023/11/20 12:21:49;;;;;;;2.60;1.00;;;;;;;;;;103615;1294;545033;-73
2023/11/20 12:25:26;;;;;;;2.50;0.90;;;;;;;;;;103687;1292;544961;-71
2023/11/20 12:29:04;;;;;;;5.00;1.10;;;;;;;;;;103846;1294;545046;-72
2023/11/20 12:32:40;;;;;;;2.20;0.80;;;;;;;;;;103759;1289;544764;-72
2023/11/20 12:36:21;;;;;;;1.90;0.70;;;;;;;;;;103774;1289;546064;-70
2023/11/20 12:39:55;;;;;;;3.50;1.00;;;;;;;;;;103697;1289;545794;-71
2023/11/20 12:43:33;;;;;;;3.30;0.90;;;;;;;;;;104355;1283;544980;-69
2023/11/20 12:47:10;;;;;;;1.50;0.70;;;;;;;;;;103716;1290;544959;-71
2023/11/20 12:50:52;;;;;;;6.50;2.50;;;;;;;;;;103833;1292;545615;-70
2023/11/20 12:54:25;;;;;;;3.50;1.20;;;;;;;;;;104020;1289;544762;-71
2023/11/20 12:58:08;;;;;;;2.50;0.70;;;;;;;;;;103787;1290;544801;-70
2023/11/20 13:01:40;;;;;;;4.40;0.90;;;;;;;;;;103971;1294;544835;-70
2023/11/20 13:05:13;;;;;;;3.20;1.10;;;;;;;;;;103715;1289;545081;-71
2023/11/20 13:08:51;;;;;;;3.60;1.20;;;;;;;;;;103814;1288;544857;-70
2023/11/20 13:12:34;;;;;;;4.50;1.00;;;;;;;;;;103743;1293;545460;-70
2023/11/20 13:16:20;;;;;;;3.80;1.00;;;;;;;;;;103903;1290;544807;-71
2023/11/20 13:19:47;;;;;;;3.20;1.20;;;;;;;;;;103572;1291;545146;-69
2023/11/20 13:23:29;;;;;;;2.50;0.90;;;;;;;;;;103789;1289;545088;-69
2023/11/20 13:27:04;;;;;;;4.50;1.30;;;;;;;;;;103550;1293;545506;-72
2023/11/20 13:30:51;;;;;;;4.60;1.30;;;;;;;;;;104257;1285;544673;-71
2023/11/20 13:34:17;;;;;;;2.00;0.80;;;;;;;;;;103636;1292;544917;-69
2023/11/20 13:37:57;;;;;;;2.80;0.90;;;;;;;;;;103808;1289;545128;-70
2023/11/20 13:41:52;;;;;;;3.50;0.90;;;;;;;;;;103759;1292;548129;-69
2023/11/20 13:45:10;;;;;;;4.30;1.00;;;;;;;;;;103703;1289;544836;-70
2023/11/20 13:49:07;;;;;;;4.30;1.50;;;;;;;;;;103549;1293;547922;-70
2023/11/20 13:52:21;;;;;;;5.90;1.50;;;;;;;;;;103783;1289;545097;-70
2023/11/20 13:55:58;;;;;;;3.60;1.10;;;;;;;;;;103648;1288;544906;-72
2023/11/20 13:59:40;;;;;;;6.00;1.80;;;;;;;;;;104149;1286;545783;-71
2023/11/20 14:03:20;;;;;;;4.50;1.50;;;;;;;;;;104542;1287;544970;-71
2023/11/20 14:06:50;;;;;;;4.30;1.40;;;;;;;;;;103894;1289;544793;-69
2023/11/20 14:10:32;;;;;;;4.30;1.20;;;;;;;;;;103701;1291;544860;-72
2023/11/20 14:14:09;;;;;;;3.60;1.10;;;;;;;;;;104002;1286;544994;-70
2023/11/20 14:17:51;;;;;;;3.10;0.90;;;;;;;;;;104031;1286;544842;-70
2023/11/20 14:21:24;;;;;;;5.00;1.30;;;;;;;;;;103644;1289;545867;-71
2023/11/20 14:25:03;;;;;;;3.80;1.20;;;;;;;;;;103679;1291;544917;-72
2023/11/20 14:28:39;;;;;;;4.70;1.60;;;;;;;;;;103764;1291;544934;-70
2023/11/20 14:32:16;;;;;;;4.60;1.70;;;;;;;;;;103720;1291;545967;-70
2023/11/20 14:35:51;;;;;;;5.00;2.00;;;;;;;;;;103991;1289;545775;-72
2023/11/20 14:39:31;;;;;;;6.70;2.40;;;;;;;;;;103739;1291;545258;-70
2023/11/20 14:43:08;;;;;;;11.50;7.90;;;;;;;;;;103452;1299;544823;-71
2023/11/20 14:46:46;;;;;;;6.70;3.00;;;;;;;;;;103714;1295;545398;-71
2023/11/20 14:50:24;;;;;;;6.60;2.90;;;;;;;;;;103423;1295;544842;-71
2023/11/20 14:53:58;;;;;;;7.80;2.70;;;;;;;;;;104449;1288;545764;-72
2023/11/20 14:57:43;;;;;;;6.40;2.80;;;;;;;;;;103686;1289;544874;-72
2023/11/20 15:01:17;;;;;;;7.00;3.60;;;;;;;;;;103924;1289;544959;-70
2023/11/20 15:04:54;;;;;;;5.90;1.70;;;;;;;;;;103554;1291;545303;-70
2023/11/20 15:08:31;;;;;;;4.70;1.80;;;;;;;;;;103602;1291;544778;-71
2023/11/20 15:12:08;;;;;;;6.30;2.30;;;;;;;;;;103670;1291;546837;-71
2023/11/20 15:15:42;;;;;;;10.60;6.50;;;;;;;;;;103898;1289;545019;-71
2023/11/20 15:19:24;;;;;;;6.60;3.40;;;;;;;;;;103738;1291;544739;-70
2023/11/20 15:23:00;;;;;;;7.30;3.50;;;;;;;;;;103827;1289;544756;-71
2023/11/20 15:26:35;;;;;;;6.10;2.40;;;;;;;;;;103939;1289;546479;-70
2023/11/20 15:30:16;;;;;;;14.70;7.60;;;;;;;;;;103936;1295;544770;-69
2023/11/20 15:33:53;;;;;;;7.90;4.00;;;;;;;;;;103655;1298;545496;-71
2023/11/20 15:37:31;;;;;;;10.20;5.70;;;;;;;;;;103756;1295;545343;-70
2023/11/20 15:41:08;;;;;;;8.10;4.50;;;;;;;;;;103724;1290;545055;-69
2023/11/20 15:44:46;;;;;;;8.50;4.70;;;;;;;;;;103646;1293;545353;-68
2023/11/20 15:48:24;;;;;;;9.80;5.50;;;;;;;;;;103627;1291;545060;-70
2023/11/20 15:51:57;;;;;;;8.70;4.70;;;;;;;;;;103801;1289;545430;-70
2023/11/20 15:55:40;;;;;;;18.60;11.90;;;;;;;;;;103485;1291;544816;-69
2023/11/20 15:59:16;;;;;;;6.80;3.30;;;;;;;;;;103671;1294;545589;-70
2023/11/20 16:02:49;;;;;;;6.70;3.70;;;;;;;;;;103658;1289;545305;-70
2023/11/20 16:06:31;;;;;;;7.90;5.20;;;;;;;;;;103774;1292;546658;-71
2023/11/20 16:10:10;;;;;;;20.60;13.60;;;;;;;;;;103423;1292;544792;-69
2023/11/20 16:13:49;;;;;;;10.70;4.60;;;;;;;;;;103762;1290;545093;-70
2023/11/20 16:17:23;;;;;;;14.60;4.40;;;;;;;;;;103849;1291;544925;-72
2023/11/20 16:21:00;;;;;;;12.40;4.90;;;;;;;;;;104116;1289;545994;-71
2023/11/20 16:24:38;;;;;;;10.00;3.70;;;;;;;;;;103697;1288;545570;-70
2023/11/20 16:28:15;;;;;;;9.80;5.80;;;;;;;;;;103709;1294;545711;-69
2023/11/20 16:31:57;;;;;;;9.40;5.00;;;;;;;;;;103863;1289;545423;-70
2023/11/20 16:35:36;;;;;;;9.60;5.90;;;;;;;;;;103761;1292;545214;-72
2023/11/20 16:39:08;;;;;;;9.20;6.00;;;;;;;;;;104022;1292;544947;-71
2023/11/20 16:42:45;;;;;;;11.80;5.70;;;;;;;;;;103730;1292;544990;-71
2023/11/20 16:46:24;;;;;;;17.40;7.20;;;;;;;;;;103595;1288;545541;-70
2023/11/20 16:49:56;;;;;;;21.00;7.70;;;;;;;;;;103648;1291;545086;-70
2023/11/20 16:53:37;;;;;;;15.10;5.20;;;;;;;;;;105410;1294;544907;-68
2023/11/20 16:57:11;;;;;;;23.90;10.20;;;;;;;;;;103902;1286;545036;-69
2023/11/20 17:00:52;;;;;;;19.00;6.70;;;;;;;;;;104174;1283;544925;-69
2023/11/20 17:04:37;;;;;;;10.60;3.30;;;;;;;;;;103876;1292;547875;-70
2023/11/20 17:08:07;;;;;;;13.90;4.70;;;;;;;;;;104034;1287;544953;-70
2023/11/20 17:11:45;;;;;;;8.30;2.80;;;;;;;;;;103792;1291;545436;-69
2023/11/20 17:15:42;;;;;;;9.40;3.00;;;;;;;;;;103963;1292;545780;-72
2023/11/20 17:19:00;;;;;;;16.10;5.60;;;;;;;;;;103671;1291;545521;-70
2023/11/20 17:22:38;;;;;;;11.10;4.40;;;;;;;;;;103656;1291;545195;-73
2023/11/20 17:26:15;;;;;;;11.10;5.80;;;;;;;;;;103802;1293;544701;-70
2023/11/20 17:29:52;;;;;;;27.80;17.20;;;;;;;;;;103642;1291;544959;-71
2023/11/20 17:33:26;;;;;;;11.20;6.90;;;;;;;;;;103804;1292;545714;-70
2023/11/20 17:37:09;;;;;;;9.30;5.60;;;;;;;;;;103501;1293;544717;-70
2023/11/20 17:40:44;;;;;;;10.50;6.00;;;;;;;;;;103420;1295;544807;-74
2023/11/20 17:44:22;;;;;;;15.30;10.50;;;;;;;;;;103751;1292;544946;-73
2023/11/20 17:47:59;;;;;;;11.50;6.50;;;;;;;;;;103547;1294;545934;-71
2023/11/20 17:51:37;;;;;;;11.70;5.40;;;;;;;;;;103774;1289;545482;-75
2023/11/20 17:55:14;;;;;;;14.90;5.90;;;;;;;;;;103801;1295;544844;-70
2023/11/20 17:58:53;;;;;;;8.60;3.30;;;;;;;;;;103745;1292;545083;-76
2023/11/20 18:02:31;;;;;;;8.30;3.10;;;;;;;;;;103736;1295;545554;-71
2023/11/20 18:06:12;;;;;;;6.20;2.40;;;;;;;;;;103670;1291;547924;-71
2023/11/20 18:09:44;;;;;;;7.70;2.70;;;;;;;;;;103763;1291;545039;-70
2023/11/20 18:13:22;;;;;;;7.60;2.60;;;;;;;;;;103551;1292;545174;-72
2023/11/20 18:16:59;;;;;;;6.20;1.90;;;;;;;;;;103796;1289;546215;-71
2023/11/20 18:20:37;;;;;;;6.50;2.20;;;;;;;;;;103481;1294;544982;-69
2023/11/20 18:24:16;;;;;;;6.20;2.40;;;;;;;;;;103686;1292;545082;-70
2023/11/20 18:27:54;;;;;;;6.00;1.70;;;;;;;;;;104045;1289;545077;-70
2023/11/20 18:31:29;;;;;;;6.20;2.00;;;;;;;;;;103763;1291;544848;-71
2023/11/20 18:35:07;;;;;;;7.80;3.00;;;;;;;;;;103732;1292;544768;-70
2023/11/20 18:38:44;;;;;;;7.00;2.30;;;;;;;;;;103817;1291;544974;-71
2023/11/20 18:42:21;;;;;;;7.20;2.40;;;;;;;;;;103737;1291;544999;-71
2023/11/20 18:45:59;;;;;;;6.60;2.10;;;;;;;;;;103695;1291;544955;-74
2023/11/20 18:49:38;;;;;;;7.40;2.70;;;;;;;;;;103541;1297;545005;-73
2023/11/20 18:53:14;;;;;;;8.00;3.30;;;;;;;;;;104467;1292;545456;-73
2023/11/20 18:56:52;;;;;;;6.30;2.20;;;;;;;;;;104592;1283;545432;-75
2023/11/20 19:00:31;;;;;;;8.10;3.00;;;;;;;;;;103843;1293;545370;-71
2023/11/20 19:04:08;;;;;;;6.40;2.90;;;;;;;;;;104096;1287;545184;-71
2023/11/20 19:07:41;;;;;;;6.20;2.50;;;;;;;;;;104027;1292;545508;-71
2023/11/20 19:11:23;;;;;;;8.10;2.60;;;;;;;;;;103839;1289;545023;-73
2023/11/20 19:15:01;;;;;;;8.60;3.20;;;;;;;;;;103836;1294;545526;-73
2023/11/20 19:18:38;;;;;;;7.70;3.20;;;;;;;;;;104179;1286;544779;-75
2023/11/20 19:22:16;;;;;;;8.50;3.90;;;;;;;;;;103799;1294;545166;-71
2023/11/20 19:25:55;;;;;;;13.90;6.10;;;;;;;;;;103630;1292;546149;-71
2023/11/20 19:29:31;;;;;;;52.60;24.60;;;;;;;;;;103781;1289;544812;-71
2023/11/20 19:33:12;;;;;;;58.90;25.20;;;;;;;;;;103651;1292;545412;-71
2023/11/20 19:36:45;;;;;;;40.00;16.90;;;;;;;;;;103822;1291;544957;-71
2023/11/20 19:40:21;;;;;;;40.50;18.80;;;;;;;;;;103789;1292;544962;-72
2023/11/20 19:44:01;;;;;;;15.30;6.90;;;;;;;;;;103790;1291;545035;-72
2023/11/20 19:47:36;;;;;;;12.40;4.70;;;;;;;;;;103804;1289;545137;-73
2023/11/20 19:51:13;;;;;;;9.30;3.60;;;;;;;;;;103819;1292;544888;-75
2023/11/20 19:54:52;;;;;;;9.90;4.60;;;;;;;;;;103764;1291;544955;-72
2023/11/20 19:58:24;;;;;;;24.00;11.00;;;;;;;;;;103969;1289;545678;-73
2023/11/20 20:02:08;;;;;;;17.10;7.00;;;;;;;;;;104136;1286;545209;-73
2023/11/20 20:05:47;;;;;;;27.80;12.00;;;;;;;;;;103579;1295;547984;-72
2023/11/20 20:09:20;;;;;;;21.70;9.00;;;;;;;;;;104149;1290;544801;-72
2023/11/20 20:12:58;;;;;;;16.70;6.30;;;;;;;;;;103924;1289;545245;-71
2023/11/20 20:16:38;;;;;;;15.00;6.10;;;;;;;;;;103808;1295;544741;-73
2023/11/20 20:20:16;;;;;;;16.90;7.10;;;;;;;;;;103715;1292;544923;-73
2023/11/20 20:23:53;;;;;;;14.90;6.20;;;;;;;;;;103777;1289;545085;-72
2023/11/20 20:27:48;;;;;;;18.50;7.60;;;;;;;;;;103731;1293;545394;-78
2023/11/20 20:31:05;;;;;;;12.70;5.50;;;;;;;;;;103835;1290;545576;-74
2023/11/20 20:34:43;;;;;;;15.80;6.40;;;;;;;;;;103882;1291;545307;-72
2023/11/20 20:38:20;;;;;;;8.80;2.70;;;;;;;;;;103802;1294;544987;-73
2023/11/20 20:41:54;;;;;;;16.40;7.60;;;;;;;;;;104088;1290;545594;-72
2023/11/20 20:45:36;;;;;;;21.40;9.10;;;;;;;;;;103722;1292;544855;-71
2023/11/20 20:49:12;;;;;;;16.90;7.50;;;;;;;;;;104715;1295;545665;-71
2023/11/20 20:53:12;;;;;;;9.40;3.60;;;;;;;;;;103850;1292;547890;-72
2023/11/20 20:56:28;;;;;;;10.80;4.90;;;;;;;;;;103814;1291;546011;-74
2023/11/20 21:00:09;;;;;;;10.90;5.00;;;;;;;;;;103915;1290;545359;-72